This is the latest recevied weather packets stored in our database for station/object KB2M. If no packets are shown the sender has not sent any weather packets the latest 10 day(s).
| Time | Temp. | Humidity | Pressure | Rain* | Wind** | Luminosity | Snow |
|---|---|---|---|---|---|---|---|
| 1777393745 | 24.44° C | 75% | 1022.6 hPa | 0 mm | - | - | - |
| 1777393145 | 25.56° C | 72% | 1022.6 hPa | 0 mm | - | - | - |
| 1777392516 | 25.56° C | 73% | 1022.6 hPa | 0 mm | - | - | - |
| 1777391914 | 25° C | 75% | 1022.6 hPa | 0 mm | - | - | - |
| 1777391284 | 25° C | 74% | 1022.6 hPa | 0 mm | - | - | - |
| 1777390683 | 25° C | 73% | 1022.6 hPa | 0 mm | - | - | - |
| 1777390083 | 25° C | 74% | 1022.6 hPa | 0 mm | - | - | - |
| 1777389483 | 25° C | 75% | 1022.6 hPa | 0 mm | - | - | - |
| 1777388883 | 24.44° C | 76% | 1022.6 hPa | 0 mm | - | - | - |
| 1777388253 | 25° C | 73% | 1022.6 hPa | 0 mm | - | - | - |
| 1777387623 | 25° C | 74% | 1022.6 hPa | 0 mm | - | - | - |
| 1777387023 | 24.44° C | 75% | 1022.6 hPa | 0 mm | - | - | - |
| 1777386423 | 24.44° C | 76% | 1022.6 hPa | 0 mm | - | - | - |
| 1777385793 | 25° C | 74% | 1022.3 hPa | 0 mm | - | - | - |
| 1777385193 | 25° C | 73% | 1022.3 hPa | 0 mm | - | - | - |
| 1777384563 | 24.44° C | 72% | 1022 hPa | 0 mm | - | - | - |
| 1777383963 | 24.44° C | 73% | 1022 hPa | 0 mm | - | - | - |
| 1777383333 | 24.44° C | 73% | 1022 hPa | 0 mm | - | - | - |
| 1777382733 | 24.44° C | 76% | 1021.6 hPa | 0 mm | - | - | - |
| 1777382133 | 23.89° C | 78% | 1021.6 hPa | 0 mm | - | - | - |
| 1777381532 | 24.44° C | 76% | 1021.6 hPa | 0 mm | - | - | - |
| 1777380932 | 23.89° C | 76% | 1021.6 hPa | 0 mm | - | - | - |
| 1777380332 | 23.89° C | 77% | 1021.6 hPa | 0 mm | - | - | - |
| 1777379731 | 23.33° C | 80% | 1021.6 hPa | 0 mm | - | - | - |
| 1777379131 | 22.22° C | 91% | 1021.6 hPa | 0 mm | - | - | - |
* Rain latest hour (hover to see other rain measurements)
** Current wind speed in m/s (hover to see current wind gust speed)